sensor_id;sensor_type;location;lat;lon;timestamp;pressure;altitude;pressure_sealevel;temperature;humidity
58082;BME280;43876;55.576;38.242;2022-07-29T00:01:39;99844.44;;;18.56;71.73
58082;BME280;43876;55.576;38.242;2022-07-29T00:04:09;99829.09;;;18.38;71.93
58082;BME280;43876;55.576;38.242;2022-07-29T00:06:36;99857.09;;;18.45;72.08
58082;BME280;43876;55.576;38.242;2022-07-29T00:09:02;99863.31;;;18.44;72.24
58082;BME280;43876;55.576;38.242;2022-07-29T00:11:29;99846.63;;;18.42;72.44
58082;BME280;43876;55.576;38.242;2022-07-29T00:13:56;99853.63;;;18.43;72.19
58082;BME280;43876;55.576;38.242;2022-07-29T00:16:23;99862.44;;;18.44;72.15
58082;BME280;43876;55.576;38.242;2022-07-29T00:18:50;99826.88;;;18.24;72.33
58082;BME280;43876;55.576;38.242;2022-07-29T00:21:17;99799.16;;;18.06;72.21
58082;BME280;43876;55.576;38.242;2022-07-29T00:23:44;99861.75;;;18.37;72.06
58082;BME280;43876;55.576;38.242;2022-07-29T00:26:11;99856.72;;;18.28;72.03
58082;BME280;43876;55.576;38.242;2022-07-29T00:28:38;99808.44;;;17.90;72.51
58082;BME280;43876;55.576;38.242;2022-07-29T00:31:05;99858.22;;;18.05;72.61
58082;BME280;43876;55.576;38.242;2022-07-29T00:33:32;99833.91;;;17.92;72.77
58082;BME280;43876;55.576;38.242;2022-07-29T00:35:59;99855.91;;;17.93;72.93
58082;BME280;43876;55.576;38.242;2022-07-29T00:38:26;99837.81;;;17.77;72.86
58082;BME280;43876;55.576;38.242;2022-07-29T00:40:53;99861.53;;;17.79;72.58
58082;BME280;43876;55.576;38.242;2022-07-29T00:43:20;99867.63;;;17.83;72.27
58082;BME280;43876;55.576;38.242;2022-07-29T00:45:47;99859.75;;;17.79;72.20
58082;BME280;43876;55.576;38.242;2022-07-29T00:48:14;99877.84;;;17.96;71.83
58082;BME280;43876;55.576;38.242;2022-07-29T00:50:41;99841.34;;;17.76;71.09
58082;BME280;43876;55.576;38.242;2022-07-29T00:53:08;99825.69;;;17.69;70.67
58082;BME280;43876;55.576;38.242;2022-07-29T00:55:38;99832.63;;;17.73;70.64
58082;BME280;43876;55.576;38.242;2022-07-29T00:58:05;99872.47;;;17.99;70.27
58082;BME280;43876;55.576;38.242;2022-07-29T01:00:33;99888.03;;;18.10;70.24
58082;BME280;43876;55.576;38.242;2022-07-29T01:03:00;99878.47;;;18.05;69.92
58082;BME280;43876;55.576;38.242;2022-07-29T01:05:27;99848.97;;;17.89;69.99
58082;BME280;43876;55.576;38.242;2022-07-29T01:08:16;99853.41;;;17.88;69.99
58082;BME280;43876;55.576;38.242;2022-07-29T01:10:44;99889.31;;;17.95;70.23
58082;BME280;43876;55.576;38.242;2022-07-29T01:13:12;99884.06;;;17.94;70.27
58082;BME280;43876;55.576;38.242;2022-07-29T01:15:47;99898.38;;;17.85;70.30
58082;BME280;43876;55.576;38.242;2022-07-29T01:18:39;99882.13;;;17.66;70.48
58082;BME280;43876;55.576;38.242;2022-07-29T01:29:32;99876.09;;;17.25;70.23
58082;BME280;43876;55.576;38.242;2022-07-29T01:32:18;99842.13;;;17.10;69.94
58082;BME280;43876;55.576;38.242;2022-07-29T01:40:18;99915.59;;;17.28;69.47
58082;BME280;43876;55.576;38.242;2022-07-29T01:42:50;99903.31;;;17.27;69.59
58082;BME280;43876;55.576;38.242;2022-07-29T01:45:37;99894.72;;;17.19;69.35
58082;BME280;43876;55.576;38.242;2022-07-29T01:48:35;99895.69;;;17.13;69.36
58082;BME280;43876;55.576;38.242;2022-07-29T01:53:41;99899.31;;;17.09;69.52
58082;BME280;43876;55.576;38.242;2022-07-29T01:56:11;99867.25;;;16.89;69.54
58082;BME280;43876;55.576;38.242;2022-07-29T01:58:41;99892.44;;;17.04;69.51
58082;BME280;43876;55.576;38.242;2022-07-29T02:01:10;99891.84;;;16.89;69.80
58082;BME280;43876;55.576;38.242;2022-07-29T02:03:39;99889.03;;;16.97;69.42
58082;BME280;43876;55.576;38.242;2022-07-29T02:06:11;99895.94;;;17.04;69.46
58082;BME280;43876;55.576;38.242;2022-07-29T02:08:39;99906.25;;;17.15;69.26
58082;BME280;43876;55.576;38.242;2022-07-29T02:11:08;99908.78;;;17.18;69.42
58082;BME280;43876;55.576;38.242;2022-07-29T02:13:36;99890.28;;;17.19;69.17
58082;BME280;43876;55.576;38.242;2022-07-29T02:16:06;99892.22;;;17.13;69.33
58082;BME280;43876;55.576;38.242;2022-07-29T02:18:36;99854.81;;;16.94;69.51
58082;BME280;43876;55.576;38.242;2022-07-29T02:21:03;99900.38;;;17.01;69.93
58082;BME280;43876;55.576;38.242;2022-07-29T02:23:41;99900.16;;;17.11;69.76
58082;BME280;43876;55.576;38.242;2022-07-29T02:26:17;99840.34;;;16.71;69.64
58082;BME280;43876;55.576;38.242;2022-07-29T02:28:46;99917.66;;;17.15;69.24
58082;BME280;43876;55.576;38.242;2022-07-29T02:31:14;99916.59;;;17.23;69.30
58082;BME280;43876;55.576;38.242;2022-07-29T02:33:43;99912.25;;;17.22;69.12
58082;BME280;43876;55.576;38.242;2022-07-29T02:36:12;99913.97;;;17.23;68.87
58082;BME280;43876;55.576;38.242;2022-07-29T02:38:41;99919.66;;;17.43;68.53
58082;BME280;43876;55.576;38.242;2022-07-29T02:41:26;99903.41;;;17.60;67.73
58082;BME280;43876;55.576;38.242;2022-07-29T02:44:10;99932.66;;;17.88;67.08
58082;BME280;43876;55.576;38.242;2022-07-29T02:47:17;99920.59;;;19.34;63.76
58082;BME280;43876;55.576;38.242;2022-07-29T02:49:53;99913.25;;;22.05;54.70
58082;BME280;43876;55.576;38.242;2022-07-29T02:52:26;99871.63;;;24.27;48.64
58082;BME280;43876;55.576;38.242;2022-07-29T02:55:07;99906.06;;;26.22;44.30
58082;BME280;43876;55.576;38.242;2022-07-29T02:57:47;99884.94;;;27.16;41.61
58082;BME280;43876;55.576;38.242;2022-07-29T03:00:23;99919.88;;;28.36;38.81
58082;BME280;43876;55.576;38.242;2022-07-29T03:02:53;99912.88;;;29.35;36.74
58082;BME280;43876;55.576;38.242;2022-07-29T03:05:21;99920.06;;;30.07;35.33
58082;BME280;43876;55.576;38.242;2022-07-29T03:07:54;99913.59;;;30.90;33.89
58082;BME280;43876;55.576;38.242;2022-07-29T03:10:22;99856.22;;;31.42;32.13
58082;BME280;43876;55.576;38.242;2022-07-29T03:12:50;99902.88;;;31.98;31.40
58082;BME280;43876;55.576;38.242;2022-07-29T03:15:18;99916.22;;;32.41;30.15
58082;BME280;43876;55.576;38.242;2022-07-29T03:17:49;99910.88;;;32.20;30.13
58082;BME280;43876;55.576;38.242;2022-07-29T03:20:17;99927.03;;;32.41;30.05
58082;BME280;43876;55.576;38.242;2022-07-29T03:22:44;99908.72;;;32.76;29.14
58082;BME280;43876;55.576;38.242;2022-07-29T03:25:18;99921.13;;;33.69;28.18
58082;BME280;43876;55.576;38.242;2022-07-29T03:27:47;99919.22;;;34.09;26.91
58082;BME280;43876;55.576;38.242;2022-07-29T03:30:14;99920.31;;;34.45;26.58
58082;BME280;43876;55.576;38.242;2022-07-29T03:32:49;99912.75;;;34.86;26.00
58082;BME280;43876;55.576;38.242;2022-07-29T03:35:20;99913.59;;;35.96;25.00
58082;BME280;43876;55.576;38.242;2022-07-29T03:37:48;99886.19;;;36.33;24.23
58082;BME280;43876;55.576;38.242;2022-07-29T03:40:22;99908.81;;;36.94;23.50
58082;BME280;43876;55.576;38.242;2022-07-29T03:42:51;99907.78;;;36.35;23.56
58082;BME280;43876;55.576;38.242;2022-07-29T03:45:21;99915.47;;;36.39;23.70
58082;BME280;43876;55.576;38.242;2022-07-29T03:47:57;99903.22;;;36.35;23.47
58082;BME280;43876;55.576;38.242;2022-07-29T03:50:28;99923.31;;;36.16;23.58
58082;BME280;43876;55.576;38.242;2022-07-29T03:52:57;99902.69;;;36.92;22.52
58082;BME280;43876;55.576;38.242;2022-07-29T03:55:25;99921.75;;;37.35;22.15
58082;BME280;43876;55.576;38.242;2022-07-29T03:57:54;99918.84;;;37.44;21.84
58082;BME280;43876;55.576;38.242;2022-07-29T04:00:24;99918.47;;;37.31;21.74
58082;BME280;43876;55.576;38.242;2022-07-29T04:02:52;99923.81;;;36.98;23.58
58082;BME280;43876;55.576;38.242;2022-07-29T04:05:19;99925.91;;;37.80;21.42
58082;BME280;43876;55.576;38.242;2022-07-29T04:07:47;99936.63;;;37.89;21.27
58082;BME280;43876;55.576;38.242;2022-07-29T04:10:15;99931.78;;;36.39;22.47
58082;BME280;43876;55.576;38.242;2022-07-29T04:12:57;99891.03;;;32.41;27.23
58082;BME280;43876;55.576;38.242;2022-07-29T04:15:24;99914.56;;;30.19;30.73
58082;BME280;43876;55.576;38.242;2022-07-29T04:17:51;99925.16;;;28.76;33.20
58082;BME280;43876;55.576;38.242;2022-07-29T04:20:18;99883.63;;;27.09;35.06
58082;BME280;43876;55.576;38.242;2022-07-29T04:22:45;99943.56;;;26.51;37.09
58082;BME280;43876;55.576;38.242;2022-07-29T04:25:12;99933.00;;;25.89;37.57
58082;BME280;43876;55.576;38.242;2022-07-29T04:27:47;99924.97;;;25.43;39.12
58082;BME280;43876;55.576;38.242;2022-07-29T04:30:30;99936.78;;;25.23;39.61
58082;BME280;43876;55.576;38.242;2022-07-29T04:32:58;99946.53;;;25.24;40.11
58082;BME280;43876;55.576;38.242;2022-07-29T04:35:28;99938.44;;;24.76;40.46
58082;BME280;43876;55.576;38.242;2022-07-29T04:37:55;99948.69;;;24.33;41.29
58082;BME280;43876;55.576;38.242;2022-07-29T04:40:22;99922.41;;;24.08;41.68
58082;BME280;43876;55.576;38.242;2022-07-29T04:42:49;99965.94;;;24.08;42.03
58082;BME280;43876;55.576;38.242;2022-07-29T04:45:16;99965.94;;;23.91;42.87
58082;BME280;43876;55.576;38.242;2022-07-29T04:47:49;99946.09;;;23.79;43.09
58082;BME280;43876;55.576;38.242;2022-07-29T04:50:15;99951.34;;;23.81;43.19
58082;BME280;43876;55.576;38.242;2022-07-29T04:52:43;99952.53;;;23.92;43.30
58082;BME280;43876;55.576;38.242;2022-07-29T04:55:10;99964.38;;;23.87;42.50
58082;BME280;43876;55.576;38.242;2022-07-29T04:57:37;99954.19;;;23.59;42.71
58082;BME280;43876;55.576;38.242;2022-07-29T05:00:05;99945.56;;;23.54;43.07
58082;BME280;43876;55.576;38.242;2022-07-29T05:02:33;99948.00;;;23.58;43.35
58082;BME280;43876;55.576;38.242;2022-07-29T05:04:59;99952.06;;;23.84;42.44
58082;BME280;43876;55.576;38.242;2022-07-29T05:07:26;99953.88;;;24.01;41.94
58082;BME280;43876;55.576;38.242;2022-07-29T05:09:53;99953.47;;;24.09;41.89
58082;BME280;43876;55.576;38.242;2022-07-29T05:12:23;99948.78;;;23.79;42.33
58082;BME280;43876;55.576;38.242;2022-07-29T05:14:51;99924.53;;;23.47;43.20
58082;BME280;43876;55.576;38.242;2022-07-29T05:17:18;99955.69;;;23.64;42.62
58082;BME280;43876;55.576;38.242;2022-07-29T05:19:45;99961.16;;;23.61;41.75
58082;BME280;43876;55.576;38.242;2022-07-29T05:22:12;99940.38;;;23.68;41.71
58082;BME280;43876;55.576;38.242;2022-07-29T05:24:39;99957.47;;;23.83;41.30
58082;BME280;43876;55.576;38.242;2022-07-29T05:27:05;99963.59;;;23.85;41.33
58082;BME280;43876;55.576;38.242;2022-07-29T05:29:32;99951.03;;;23.68;41.91
58082;BME280;43876;55.576;38.242;2022-07-29T05:32:14;99950.25;;;23.66;41.19
58082;BME280;43876;55.576;38.242;2022-07-29T05:34:41;99962.25;;;23.94;40.78
58082;BME280;43876;55.576;38.242;2022-07-29T05:37:16;99968.69;;;24.07;39.86
58082;BME280;43876;55.576;38.242;2022-07-29T05:39:43;99958.25;;;24.02;38.93
58082;BME280;43876;55.576;38.242;2022-07-29T05:42:14;99947.50;;;23.86;38.33
58082;BME280;43876;55.576;38.242;2022-07-29T05:44:41;99956.53;;;23.65;39.28
58082;BME280;43876;55.576;38.242;2022-07-29T05:47:08;99962.19;;;23.59;39.25
58082;BME280;43876;55.576;38.242;2022-07-29T05:49:35;99962.19;;;23.59;39.89
58082;BME280;43876;55.576;38.242;2022-07-29T05:52:02;99966.34;;;23.64;40.04
58082;BME280;43876;55.576;38.242;2022-07-29T05:54:29;99951.81;;;23.34;40.45
58082;BME280;43876;55.576;38.242;2022-07-29T05:56:56;99954.94;;;23.24;40.95
58082;BME280;43876;55.576;38.242;2022-07-29T05:59:23;99944.50;;;23.01;41.58
58082;BME280;43876;55.576;38.242;2022-07-29T06:01:56;99928.16;;;22.69;41.35
58082;BME280;43876;55.576;38.242;2022-07-29T06:04:24;99949.72;;;23.04;41.72
58082;BME280;43876;55.576;38.242;2022-07-29T06:06:51;99953.25;;;23.60;40.51
58082;BME280;43876;55.576;38.242;2022-07-29T06:09:18;99950.66;;;23.77;40.04
58082;BME280;43876;55.576;38.242;2022-07-29T06:11:45;99959.28;;;23.82;39.71
58082;BME280;43876;55.576;38.242;2022-07-29T06:14:12;99954.06;;;23.43;40.27
58082;BME280;43876;55.576;38.242;2022-07-29T06:16:40;99953.00;;;23.28;40.83
58082;BME280;43876;55.576;38.242;2022-07-29T06:19:07;99921.44;;;23.19;41.07
58082;BME280;43876;55.576;38.242;2022-07-29T06:21:35;99918.03;;;23.17;39.59
58082;BME280;43876;55.576;38.242;2022-07-29T06:24:07;99946.50;;;23.34;39.32
58082;BME280;43876;55.576;38.242;2022-07-29T06:26:34;99939.66;;;23.47;39.58
58082;BME280;43876;55.576;38.242;2022-07-29T06:29:06;99948.63;;;23.63;38.91
58082;BME280;43876;55.576;38.242;2022-07-29T06:31:33;99959.66;;;23.56;39.45
58082;BME280;43876;55.576;38.242;2022-07-29T06:34:01;99949.47;;;23.83;38.70
58082;BME280;43876;55.576;38.242;2022-07-29T06:36:29;99954.09;;;23.79;38.97
58082;BME280;43876;55.576;38.242;2022-07-29T06:38:56;99957.56;;;23.81;39.24
58082;BME280;43876;55.576;38.242;2022-07-29T06:41:23;99949.56;;;23.99;38.50
58082;BME280;43876;55.576;38.242;2022-07-29T06:43:50;99950.09;;;24.23;38.13
58082;BME280;43876;55.576;38.242;2022-07-29T06:46:22;99956.53;;;24.36;36.75
58082;BME280;43876;55.576;38.242;2022-07-29T06:48:50;99961.41;;;24.28;36.47
58082;BME280;43876;55.576;38.242;2022-07-29T06:51:19;99953.16;;;24.15;36.88
58082;BME280;43876;55.576;38.242;2022-07-29T06:53:50;99953.22;;;23.96;36.83
58082;BME280;43876;55.576;38.242;2022-07-29T06:56:33;99955.34;;;23.89;36.68
58082;BME280;43876;55.576;38.242;2022-07-29T06:59:08;99943.56;;;23.76;37.32
58082;BME280;43876;55.576;38.242;2022-07-29T07:01:37;99950.56;;;23.96;36.69
58082;BME280;43876;55.576;38.242;2022-07-29T07:04:05;99966.66;;;24.12;36.93
58082;BME280;43876;55.576;38.242;2022-07-29T07:06:31;99972.25;;;24.07;36.98
58082;BME280;43876;55.576;38.242;2022-07-29T07:08:59;99965.09;;;24.08;37.36
58082;BME280;43876;55.576;38.242;2022-07-29T07:11:26;99934.34;;;24.01;38.00
58082;BME280;43876;55.576;38.242;2022-07-29T07:13:53;99964.31;;;24.23;37.56
58082;BME280;43876;55.576;38.242;2022-07-29T07:16:26;99980.94;;;24.28;37.27
58082;BME280;43876;55.576;38.242;2022-07-29T07:18:52;99972.06;;;24.28;37.55
58082;BME280;43876;55.576;38.242;2022-07-29T07:21:20;99987.06;;;24.30;37.58
58082;BME280;43876;55.576;38.242;2022-07-29T07:23:47;99976.16;;;24.18;37.74
58082;BME280;43876;55.576;38.242;2022-07-29T07:26:14;99977.59;;;24.25;37.65
58082;BME280;43876;55.576;38.242;2022-07-29T07:28:41;99989.53;;;24.35;37.96
58082;BME280;43876;55.576;38.242;2022-07-29T07:31:08;99964.53;;;24.53;38.26
58082;BME280;43876;55.576;38.242;2022-07-29T07:33:35;99937.59;;;24.41;37.85
58082;BME280;43876;55.576;38.242;2022-07-29T07:36:02;99957.78;;;24.64;38.05
58082;BME280;43876;55.576;38.242;2022-07-29T07:38:30;99964.25;;;24.76;37.60
58082;BME280;43876;55.576;38.242;2022-07-29T07:40:57;99963.88;;;24.99;37.63
58082;BME280;43876;55.576;38.242;2022-07-29T07:43:24;99934.66;;;24.96;37.46
58082;BME280;43876;55.576;38.242;2022-07-29T07:45:51;99977.34;;;25.13;37.41
58082;BME280;43876;55.576;38.242;2022-07-29T07:48:17;99949.72;;;25.30;37.01
58082;BME280;43876;55.576;38.242;2022-07-29T07:50:44;99979.00;;;25.64;36.43
58082;BME280;43876;55.576;38.242;2022-07-29T07:53:11;99971.69;;;25.36;36.41
58082;BME280;43876;55.576;38.242;2022-07-29T07:55:42;99979.50;;;24.73;37.27
58082;BME280;43876;55.576;38.242;2022-07-29T07:58:29;99987.28;;;24.61;37.78
58082;BME280;43876;55.576;38.242;2022-07-29T08:00:56;99991.31;;;24.52;38.48
58082;BME280;43876;55.576;38.242;2022-07-29T08:03:23;99977.66;;;24.58;38.84
58082;BME280;43876;55.576;38.242;2022-07-29T08:05:50;99978.91;;;25.02;38.39
58082;BME280;43876;55.576;38.242;2022-07-29T08:08:18;99990.25;;;24.89;38.41
58082;BME280;43876;55.576;38.242;2022-07-29T08:10:45;99988.59;;;24.87;38.08
58082;BME280;43876;55.576;38.242;2022-07-29T08:13:20;99985.34;;;24.47;36.96
58082;BME280;43876;55.576;38.242;2022-07-29T08:15:48;99985.19;;;24.50;37.02
58082;BME280;43876;55.576;38.242;2022-07-29T08:18:28;99977.91;;;24.19;38.27
58082;BME280;43876;55.576;38.242;2022-07-29T08:20:56;99987.59;;;24.02;38.75
58082;BME280;43876;55.576;38.242;2022-07-29T08:23:23;99980.78;;;23.79;38.95
58082;BME280;43876;55.576;38.242;2022-07-29T08:25:51;99972.59;;;23.82;38.96
58082;BME280;43876;55.576;38.242;2022-07-29T08:28:20;99971.59;;;24.02;39.31
58082;BME280;43876;55.576;38.242;2022-07-29T08:30:51;99969.25;;;24.31;38.49
58082;BME280;43876;55.576;38.242;2022-07-29T08:33:18;99964.03;;;24.63;38.05
58082;BME280;43876;55.576;38.242;2022-07-29T08:35:45;99980.63;;;24.35;38.70
58082;BME280;43876;55.576;38.242;2022-07-29T08:38:12;99974.59;;;24.14;39.01
58082;BME280;43876;55.576;38.242;2022-07-29T08:40:39;99979.06;;;23.96;38.30
58082;BME280;43876;55.576;38.242;2022-07-29T08:43:09;99966.34;;;23.83;38.31
58082;BME280;43876;55.576;38.242;2022-07-29T08:45:47;99934.72;;;24.10;37.40
58082;BME280;43876;55.576;38.242;2022-07-29T08:48:20;99959.88;;;24.75;36.03
58082;BME280;43876;55.576;38.242;2022-07-29T08:50:52;99970.44;;;24.93;35.26
58082;BME280;43876;55.576;38.242;2022-07-29T08:53:24;99957.75;;;24.97;34.76
58082;BME280;43876;55.576;38.242;2022-07-29T08:55:54;99961.25;;;24.82;34.78
58082;BME280;43876;55.576;38.242;2022-07-29T08:58:22;99962.97;;;24.49;35.49
58082;BME280;43876;55.576;38.242;2022-07-29T09:00:53;99964.31;;;24.23;35.94
58082;BME280;43876;55.576;38.242;2022-07-29T09:03:24;99974.06;;;24.24;36.14
58082;BME280;43876;55.576;38.242;2022-07-29T09:05:52;99971.63;;;24.88;35.58
58082;BME280;43876;55.576;38.242;2022-07-29T09:08:19;99962.03;;;25.49;34.84
58082;BME280;43876;55.576;38.242;2022-07-29T09:10:47;99958.63;;;25.93;33.72
58082;BME280;43876;55.576;38.242;2022-07-29T09:13:14;99959.41;;;26.25;33.38
58082;BME280;43876;55.576;38.242;2022-07-29T09:15:41;99956.72;;;26.25;32.85
58082;BME280;43876;55.576;38.242;2022-07-29T09:18:08;99968.81;;;25.86;33.35
58082;BME280;43876;55.576;38.242;2022-07-29T09:20:55;99951.03;;;25.23;34.28
58082;BME280;43876;55.576;38.242;2022-07-29T09:23:40;99973.19;;;24.92;35.20
58082;BME280;43876;55.576;38.242;2022-07-29T09:26:09;99981.94;;;24.78;35.18
58082;BME280;43876;55.576;38.242;2022-07-29T09:28:41;99982.84;;;24.61;35.92
58082;BME280;43876;55.576;38.242;2022-07-29T09:31:08;99997.41;;;24.71;36.59
58082;BME280;43876;55.576;38.242;2022-07-29T09:33:36;99978.59;;;24.57;36.14
58082;BME280;43876;55.576;38.242;2022-07-29T09:36:07;99979.00;;;24.49;35.74
58082;BME280;43876;55.576;38.242;2022-07-29T09:38:35;99937.16;;;24.15;36.61
58082;BME280;43876;55.576;38.242;2022-07-29T09:41:04;99961.88;;;24.53;35.92
58082;BME280;43876;55.576;38.242;2022-07-29T09:43:33;99987.81;;;24.85;35.53
58082;BME280;43876;55.576;38.242;2022-07-29T09:46:11;99962.91;;;24.51;35.86
58082;BME280;43876;55.576;38.242;2022-07-29T09:48:39;99977.13;;;24.51;35.81
58082;BME280;43876;55.576;38.242;2022-07-29T09:51:17;99935.63;;;24.62;34.60
58082;BME280;43876;55.576;38.242;2022-07-29T09:53:48;99985.00;;;25.21;34.08
58082;BME280;43876;55.576;38.242;2022-07-29T09:56:19;99975.66;;;25.44;33.83
58082;BME280;43876;55.576;38.242;2022-07-29T09:58:46;99986.69;;;25.70;33.19
58082;BME280;43876;55.576;38.242;2022-07-29T10:01:13;99964.75;;;25.95;32.43
58082;BME280;43876;55.576;38.242;2022-07-29T10:03:51;99970.75;;;26.14;32.62
58082;BME280;43876;55.576;38.242;2022-07-29T10:06:18;99971.25;;;26.21;32.08
58082;BME280;43876;55.576;38.242;2022-07-29T10:08:46;99968.78;;;26.32;32.42
58082;BME280;43876;55.576;38.242;2022-07-29T10:11:17;99975.31;;;26.12;32.66
58082;BME280;43876;55.576;38.242;2022-07-29T10:13:46;99968.06;;;25.52;33.40
58082;BME280;43876;55.576;38.242;2022-07-29T10:16:15;99972.59;;;25.19;34.09
58082;BME280;43876;55.576;38.242;2022-07-29T10:18:43;99967.06;;;25.06;34.35
58082;BME280;43876;55.576;38.242;2022-07-29T10:21:10;99955.13;;;24.80;34.24
58082;BME280;43876;55.576;38.242;2022-07-29T10:23:58;99980.00;;;24.98;34.69
58082;BME280;43876;55.576;38.242;2022-07-29T10:26:27;99970.31;;;25.28;33.75
58082;BME280;43876;55.576;38.242;2022-07-29T10:28:55;99970.22;;;25.78;32.91
58082;BME280;43876;55.576;38.242;2022-07-29T10:31:28;99965.59;;;26.11;31.96
58082;BME280;43876;55.576;38.242;2022-07-29T10:34:34;99959.81;;;26.33;32.08
58082;BME280;43876;55.576;38.242;2022-07-29T10:43:00;99955.75;;;26.26;32.04
58082;BME280;43876;55.576;38.242;2022-07-29T10:45:32;99959.72;;;26.05;32.11
58082;BME280;43876;55.576;38.242;2022-07-29T10:48:05;99960.84;;;25.85;32.54
58082;BME280;43876;55.576;38.242;2022-07-29T10:50:56;99962.03;;;25.49;32.86
58082;BME280;43876;55.576;38.242;2022-07-29T10:53:24;99966.00;;;25.42;33.66
58082;BME280;43876;55.576;38.242;2022-07-29T10:55:59;99925.66;;;25.30;33.75
58082;BME280;43876;55.576;38.242;2022-07-29T10:58:32;99966.34;;;25.36;33.76
58082;BME280;43876;55.576;38.242;2022-07-29T11:01:30;99957.16;;;25.08;33.93
58082;BME280;43876;55.576;38.242;2022-07-29T11:04:03;99979.19;;;25.29;33.75
58082;BME280;43876;55.576;38.242;2022-07-29T11:07:13;99969.22;;;25.32;33.56
58082;BME280;43876;55.576;38.242;2022-07-29T11:09:43;99962.34;;;25.11;34.17
58082;BME280;43876;55.576;38.242;2022-07-29T11:15:07;99956.81;;;24.98;34.59
58082;BME280;43876;55.576;38.242;2022-07-29T11:23:29;99972.78;;;25.00;34.72
58082;BME280;43876;55.576;38.242;2022-07-29T11:28:48;99971.94;;;24.82;34.73
58082;BME280;43876;55.576;38.242;2022-07-29T11:31:19;99975.38;;;24.68;35.04
58082;BME280;43876;55.576;38.242;2022-07-29T11:33:47;99985.16;;;25.01;34.93
58082;BME280;43876;55.576;38.242;2022-07-29T11:36:22;99986.63;;;25.24;34.45
58082;BME280;43876;55.576;38.242;2022-07-29T11:39:26;99971.19;;;25.29;34.75
58082;BME280;43876;55.576;38.242;2022-07-29T11:45:22;99972.00;;;25.13;34.63
58082;BME280;43876;55.576;38.242;2022-07-29T11:48:17;99974.66;;;24.98;35.48
58082;BME280;43876;55.576;38.242;2022-07-29T11:51:09;99986.13;;;25.00;35.44
58082;BME280;43876;55.576;38.242;2022-07-29T11:53:39;99970.59;;;24.90;34.99
58082;BME280;43876;55.576;38.242;2022-07-29T11:56:08;99939.88;;;24.66;35.40
58082;BME280;43876;55.576;38.242;2022-07-29T11:58:36;99944.38;;;24.97;34.99
58082;BME280;43876;55.576;38.242;2022-07-29T12:01:04;99981.94;;;25.59;34.78
58082;BME280;43876;55.576;38.242;2022-07-29T12:03:32;99963.88;;;25.79;33.72
58082;BME280;43876;55.576;38.242;2022-07-29T12:06:14;99982.72;;;25.93;33.59
58082;BME280;43876;55.576;38.242;2022-07-29T12:08:44;99971.19;;;26.07;33.37
58082;BME280;43876;55.576;38.242;2022-07-29T12:11:18;99970.16;;;26.09;33.34
58082;BME280;43876;55.576;38.242;2022-07-29T12:13:48;99970.66;;;26.16;33.01
58082;BME280;43876;55.576;38.242;2022-07-29T12:16:16;99984.34;;;26.26;33.27
58082;BME280;43876;55.576;38.242;2022-07-29T12:18:59;99985.19;;;26.26;32.90
58082;BME280;43876;55.576;38.242;2022-07-29T12:21:50;99983.63;;;26.38;32.83
58082;BME280;43876;55.576;38.242;2022-07-29T12:24:22;99963.69;;;26.28;32.61
58082;BME280;43876;55.576;38.242;2022-07-29T12:26:59;99968.13;;;25.99;33.08
58082;BME280;43876;55.576;38.242;2022-07-29T12:29:27;99931.38;;;25.70;32.98
58082;BME280;43876;55.576;38.242;2022-07-29T12:32:02;99968.22;;;25.97;33.00
58082;BME280;43876;55.576;38.242;2022-07-29T12:34:31;99974.00;;;26.20;32.88
58082;BME280;43876;55.576;38.242;2022-07-29T12:36:58;99976.22;;;26.27;32.50
58082;BME280;43876;55.576;38.242;2022-07-29T12:39:25;99976.16;;;26.43;32.45
58082;BME280;43876;55.576;38.242;2022-07-29T12:41:54;99977.06;;;26.58;31.66
58082;BME280;43876;55.576;38.242;2022-07-29T12:44:51;99961.59;;;26.63;31.67
58082;BME280;43876;55.576;38.242;2022-07-29T12:47:19;99944.69;;;26.47;31.90
58082;BME280;43876;55.576;38.242;2022-07-29T12:49:47;99966.75;;;26.66;32.10
58082;BME280;43876;55.576;38.242;2022-07-29T12:54:56;99967.16;;;26.89;31.64
58082;BME280;43876;55.576;38.242;2022-07-29T12:57:24;99972.38;;;26.90;31.48
58082;BME280;43876;55.576;38.242;2022-07-29T13:00:06;99955.44;;;26.75;31.54
58082;BME280;43876;55.576;38.242;2022-07-29T13:02:35;99977.28;;;26.84;31.33
58082;BME280;43876;55.576;38.242;2022-07-29T13:05:04;99968.56;;;26.80;31.68
58082;BME280;43876;55.576;38.242;2022-07-29T13:07:32;99976.03;;;26.75;31.89
58082;BME280;43876;55.576;38.242;2022-07-29T13:10:22;99974.41;;;26.72;32.21
58082;BME280;43876;55.576;38.242;2022-07-29T13:13:08;99976.91;;;26.90;32.37
58082;BME280;43876;55.576;38.242;2022-07-29T13:15:42;99950.00;;;26.63;32.10
58082;BME280;43876;55.576;38.242;2022-07-29T13:20:56;99976.31;;;26.70;31.75
58082;BME280;43876;55.576;38.242;2022-07-29T13:23:24;99969.34;;;26.68;32.17
58082;BME280;43876;55.576;38.242;2022-07-29T13:25:50;99974.25;;;26.45;32.60
58082;BME280;43876;55.576;38.242;2022-07-29T13:28:19;99952.81;;;26.31;32.42
58082;BME280;43876;55.576;38.242;2022-07-29T13:30:48;99967.63;;;26.22;32.36
58082;BME280;43876;55.576;38.242;2022-07-29T13:33:14;99931.69;;;25.96;32.30
58082;BME280;43876;55.576;38.242;2022-07-29T13:35:41;99947.16;;;25.91;32.40
58082;BME280;43876;55.576;38.242;2022-07-29T13:38:08;99961.03;;;25.98;32.48
58082;BME280;43876;55.576;38.242;2022-07-29T13:40:35;99985.47;;;26.22;32.14
58082;BME280;43876;55.576;38.242;2022-07-29T13:43:03;99978.06;;;26.27;31.84
58082;BME280;43876;55.576;38.242;2022-07-29T13:45:30;99974.00;;;26.20;31.93
58082;BME280;43876;55.576;38.242;2022-07-29T13:47:57;99974.03;;;26.34;32.05
58082;BME280;43876;55.576;38.242;2022-07-29T13:50:24;99945.34;;;26.36;32.02
58082;BME280;43876;55.576;38.242;2022-07-29T13:52:51;99983.78;;;26.80;31.37